Time;durP1;ratioP1;P1;durP2;ratioP2;P2;SDS_P1;SDS_P2;PMS_P1;PMS_P2;Temp;Humidity;BMP_temperature;BMP_pressure;BME280_temperature;BME280_humidity;BME280_pressure;Samples;Min_cycle;Max_cycle;Signal;HPM_P1;HPM_P2
2023/05/10 00:02:17;;;;;;;16.10;10.93;;;;;;;14.58;85.45;100757.91;5025553;28;20362;-93
2023/05/10 00:04:42;;;;;;;16.13;10.90;;;;;;;14.56;84.90;100758.00;5023318;28;20049;-93
2023/05/10 00:07:07;;;;;;;19.48;12.18;;;;;;;14.57;84.94;100758.84;5023407;28;20033;-93
2023/05/10 00:09:32;;;;;;;21.00;12.77;;;;;;;14.58;85.10;100758.75;5008398;28;20025;-93
2023/05/10 00:11:58;;;;;;;17.75;11.57;;;;;;;14.54;84.77;100759.88;5004999;28;20030;-94
2023/05/10 00:14:23;;;;;;;17.45;12.32;;;;;;;14.52;84.87;100762.63;5020120;28;20373;-92
2023/05/10 00:16:49;;;;;;;23.15;13.25;;;;;;;14.44;85.16;100751.53;5003385;28;21992;-94
2023/05/10 00:19:14;;;;;;;17.88;11.85;;;;;;;14.50;84.90;100763.66;5005507;28;20025;-92
2023/05/10 00:21:39;;;;;;;21.73;13.38;;;;;;;14.53;84.62;100766.13;5013312;28;20067;-93
2023/05/10 00:24:05;;;;;;;22.20;13.88;;;;;;;14.47;84.88;100755.84;5013280;28;20033;-94
2023/05/10 00:26:30;;;;;;;20.02;13.40;;;;;;;14.47;85.16;100759.34;5030390;28;20025;-92
2023/05/10 00:28:56;;;;;;;20.83;13.00;;;;;;;14.56;84.63;100765.97;5031554;28;20036;-94
2023/05/10 00:31:22;;;;;;;22.05;13.70;;;;;;;14.44;84.99;100750.69;5029508;28;20080;-93
2023/05/10 00:33:47;;;;;;;20.83;13.55;;;;;;;14.44;84.59;100750.69;5027368;28;20460;-93
2023/05/10 00:36:12;;;;;;;21.60;13.60;;;;;;;14.46;84.32;100759.44;5006815;28;20025;-93
2023/05/10 00:38:37;;;;;;;21.33;13.55;;;;;;;14.43;84.24;100754.28;5008562;28;20036;-93
2023/05/10 00:41:03;;;;;;;18.85;12.50;;;;;;;14.40;84.01;100757.13;5008840;28;20435;-92
2023/05/10 00:43:28;;;;;;;20.67;12.38;;;;;;;14.33;83.87;100759.28;5024856;28;20033;-95
2023/05/10 00:45:54;;;;;;;23.50;13.32;;;;;;;14.32;84.17;100767.34;5008452;28;20372;-93
2023/05/10 00:48:20;;;;;;;21.65;13.98;;;;;;;14.30;84.18;100760.31;5008791;28;20063;-94
2023/05/10 00:50:45;;;;;;;21.05;13.95;;;;;;;14.35;84.67;100757.38;5011025;28;20029;-95
2023/05/10 00:53:11;;;;;;;21.83;13.38;;;;;;;14.44;83.75;100774.63;5033210;28;20361;-94
2023/05/10 00:55:37;;;;;;;19.10;13.02;;;;;;;14.42;84.16;100755.25;5016897;28;20036;-93
2023/05/10 00:58:03;;;;;;;22.50;14.00;;;;;;;14.35;84.92;100752.06;5037005;28;20731;-94
2023/05/10 01:00:29;;;;;;;26.35;15.52;;;;;;;14.35;84.76;100764.50;5030292;28;20040;-95
2023/05/10 01:02:54;;;;;;;25.40;14.60;;;;;;;14.30;85.01;100759.44;5007442;28;20371;-91
2023/05/10 01:05:20;;;;;;;27.05;15.95;;;;;;;14.30;84.97;100757.63;5007833;28;20040;-93
2023/05/10 01:07:45;;;;;;;23.63;15.23;;;;;;;14.35;84.74;100764.50;5024424;28;20523;-91
2023/05/10 01:10:11;;;;;;;26.63;15.15;;;;;;;14.31;84.59;100750.50;5008904;28;20037;-95
2023/05/10 01:12:40;;;;;;;25.67;15.25;;;;;;;14.26;85.25;100750.78;5025313;28;20040;-93
2023/05/10 01:15:07;;;;;;;24.65;14.85;;;;;;;14.27;85.13;100757.84;5026121;28;20468;-94
2023/05/10 01:17:35;;;;;;;28.77;16.17;;;;;;;13.93;85.84;100750.88;5024821;28;20041;-93
2023/05/10 01:20:00;;;;;;;29.15;16.15;;;;;;;13.92;86.24;100750.97;5028773;28;20025;-94
2023/05/10 01:22:48;;;;;;;29.02;16.38;;;;;;;13.87;87.93;100761.00;5032933;28;20037;-95
2023/05/10 01:25:19;;;;;;;23.98;14.50;;;;;;;13.86;87.78;100764.59;5026677;28;20107;-93
2023/05/10 01:28:21;;;;;;;28.80;15.93;;;;;;;13.93;87.85;100763.31;5023564;28;20033;-94
2023/05/10 01:31:22;;;;;;;27.60;16.35;;;;;;;13.98;87.54;100758.59;5031822;28;20472;-93
2023/05/10 01:34:04;;;;;;;29.73;17.50;;;;;;;13.92;88.06;100758.94;4981958;28;20552;-94
2023/05/10 01:36:43;;;;;;;33.65;17.98;;;;;;;13.91;88.78;100751.91;5017191;28;20472;-93
2023/05/10 01:39:15;;;;;;;36.55;20.30;;;;;;;13.95;88.99;100754.31;5031609;28;20556;-94
2023/05/10 01:42:00;;;;;;;45.53;22.98;;;;;;;13.99;88.64;100752.38;5037455;28;20029;-91
2023/05/10 01:44:42;;;;;;;57.17;26.70;;;;;;;14.01;88.94;100750.47;5029713;28;20609;-92
2023/05/10 01:47:15;;;;;;;59.65;27.50;;;;;;;14.00;89.19;100751.41;5034633;28;20028;-94
2023/05/10 01:49:46;;;;;;;70.78;31.30;;;;;;;14.03;89.37;100764.50;5011506;28;20072;-93
2023/05/10 01:52:21;;;;;;;67.43;30.98;;;;;;;14.01;89.50;100759.28;5014509;28;20028;-95
2023/05/10 01:54:55;;;;;;;68.18;30.33;;;;;;;14.08;89.25;100766.91;5022472;28;20543;-93
2023/05/10 01:57:25;;;;;;;72.72;31.92;;;;;;;14.08;89.40;100758.94;5024649;28;20048;-94
2023/05/10 01:59:52;;;;;;;63.42;31.20;;;;;;;14.24;88.43;100765.13;5026691;28;20424;-93
2023/05/10 02:02:20;;;;;;;63.35;30.77;;;;;;;14.27;88.39;100757.84;5011790;28;20044;-93
2023/05/10 02:04:47;;;;;;;59.72;29.30;;;;;;;14.50;87.02;100764.53;5026334;28;20091;-94
2023/05/10 02:07:14;;;;;;;67.35;30.65;;;;;;;14.48;87.10;100761.09;5024185;28;20571;-93
2023/05/10 02:09:41;;;;;;;59.75;27.25;;;;;;;14.58;86.74;100769.38;5031397;28;20029;-93
2023/05/10 02:12:08;;;;;;;65.28;29.52;;;;;;;14.58;86.72;100769.38;5026183;28;20483;-94
2023/05/10 02:14:36;;;;;;;60.25;28.92;;;;;;;14.65;86.84;100776.09;5034687;28;20510;-93
2023/05/10 02:17:05;;;;;;;59.00;29.52;;;;;;;14.66;86.93;100777.78;5013901;28;20025;-94
2023/05/10 02:19:32;;;;;;;57.83;26.08;;;;;;;14.50;86.77;100782.28;5008825;28;20052;-93
2023/05/10 02:22:00;;;;;;;56.42;28.50;;;;;;;14.23;87.89;100780.22;5030142;28;20025;-93
2023/05/10 02:24:27;;;;;;;60.10;29.55;;;;;;;14.41;87.41;100778.31;5036012;28;20116;-93
2023/05/10 02:26:55;;;;;;;52.90;27.60;;;;;;;14.22;88.25;100780.28;5018595;28;20611;-91
2023/05/10 02:29:23;;;;;;;59.05;29.33;;;;;;;14.27;88.75;100788.91;5030669;28;20027;-94
2023/05/10 02:31:51;;;;;;;57.78;27.88;;;;;;;14.24;88.77;100791.72;5012593;28;20025;-92
2023/05/10 02:34:16;;;;;;;57.17;27.77;;;;;;;14.20;88.49;100783.03;5012202;28;20040;-93
2023/05/10 02:36:42;;;;;;;60.22;28.75;;;;;;;14.21;88.67;100786.56;5029589;28;20029;-93
2023/05/10 02:39:12;;;;;;;58.97;29.63;;;;;;;14.17;89.02;100777.03;5029599;28;20082;-93
2023/05/10 02:41:39;;;;;;;57.30;29.48;;;;;;;14.20;88.85;100782.19;5033116;28;20017;-93
2023/05/10 02:44:07;;;;;;;64.95;32.05;;;;;;;14.13;88.83;100789.66;5010775;28;20108;-94
2023/05/10 02:46:33;;;;;;;64.90;33.83;;;;;;;14.14;88.76;100791.38;5029238;28;20079;-93
2023/05/10 02:48:59;;;;;;;71.13;33.92;;;;;;;14.16;88.41;100786.81;5032980;28;20045;-93
2023/05/10 02:51:31;;;;;;;69.50;35.00;;;;;;;14.14;87.92;100782.53;5025481;28;20053;-94
2023/05/10 02:53:59;;;;;;;70.30;34.35;;;;;;;14.16;87.64;100780.66;5005763;28;20028;-93
2023/05/10 02:56:36;;;;;;;69.57;35.90;;;;;;;14.16;87.69;100785.97;5008174;28;20513;-94
2023/05/10 02:59:01;;;;;;;67.97;34.67;;;;;;;14.11;87.49;100785.38;5027096;28;20057;-95
2023/05/10 03:01:27;;;;;;;69.22;35.63;;;;;;;14.01;87.29;100769.06;5026738;28;20592;-93
2023/05/10 03:03:52;;;;;;;66.75;34.95;;;;;;;14.12;87.39;100774.63;4988356;28;20060;-93
2023/05/10 03:06:17;;;;;;;68.85;35.80;;;;;;;14.06;87.36;100779.44;5022240;28;20871;-94
2023/05/10 03:08:44;;;;;;;71.32;35.00;;;;;;;14.00;87.67;100788.63;5020917;28;20127;-94
2023/05/10 03:11:27;;;;;;;60.47;31.70;;;;;;;13.97;87.95;100773.69;5023516;28;20061;-94
2023/05/10 03:14:01;;;;;;;66.43;33.67;;;;;;;14.04;87.58;100790.19;5009081;28;20032;-94
2023/05/10 03:16:30;;;;;;;68.70;33.65;;;;;;;14.03;88.17;100784.00;5022160;28;20038;-94
2023/05/10 03:19:15;;;;;;;73.43;37.17;;;;;;;14.08;88.00;100794.34;5027144;28;20033;-92
2023/05/10 03:21:47;;;;;;;75.13;35.40;;;;;;;14.06;88.39;100788.28;5007449;28;20116;-94
2023/05/10 03:24:15;;;;;;;67.40;36.40;;;;;;;14.03;88.20;100789.31;5029854;28;20392;-94
2023/05/10 03:26:44;;;;;;;63.75;34.15;;;;;;;14.00;89.24;100801.91;5028904;28;20056;-94
2023/05/10 03:29:11;;;;;;;63.00;32.50;;;;;;;14.00;88.76;100792.13;5027686;28;20029;-94
2023/05/10 03:31:37;;;;;;;67.95;33.47;;;;;;;13.99;89.03;100795.75;5029667;28;20033;-93
2023/05/10 03:34:03;;;;;;;61.58;33.20;;;;;;;14.00;89.06;100793.94;5014260;28;20078;-92
2023/05/10 03:36:28;;;;;;;67.00;33.25;;;;;;;14.06;88.91;100806.88;5026067;28;20033;-94
2023/05/10 03:38:54;;;;;;;65.38;32.33;;;;;;;14.00;88.95;100789.47;5012296;28;20022;-95
2023/05/10 03:41:20;;;;;;;67.32;33.10;;;;;;;14.02;89.20;100797.34;5011475;28;20017;-94
2023/05/10 03:43:45;;;;;;;60.55;32.13;;;;;;;14.06;88.67;100808.69;5029548;28;20029;-94
2023/05/10 03:46:11;;;;;;;61.88;31.42;;;;;;;14.04;89.28;100804.31;5009793;28;20090;-92
2023/05/10 03:48:36;;;;;;;60.47;30.17;;;;;;;14.09;89.00;100805.88;5029486;28;20531;-94
2023/05/10 03:51:01;;;;;;;56.47;29.45;;;;;;;14.06;88.66;100809.53;5011538;28;20136;-94
2023/05/10 03:53:27;;;;;;;59.08;30.63;;;;;;;14.07;88.73;100810.41;5026145;28;20503;-92
2023/05/10 03:55:52;;;;;;;57.10;28.50;;;;;;;14.06;88.79;100808.69;5024829;28;20037;-94
2023/05/10 03:58:18;;;;;;;55.58;29.00;;;;;;;14.08;88.38;100812.09;5008808;28;20091;-93
2023/05/10 04:00:45;;;;;;;61.05;29.92;;;;;;;14.08;88.65;100809.44;5013012;28;20097;-94
2023/05/10 04:03:13;;;;;;;55.10;28.52;;;;;;;14.08;88.90;100817.41;5026284;28;20026;-94
2023/05/10 04:05:39;;;;;;;57.35;29.67;;;;;;;14.07;88.58;100811.25;5013656;28;20021;-94
2023/05/10 04:08:05;;;;;;;53.83;29.63;;;;;;;14.15;88.34;100825.00;5025256;28;20464;-93
2023/05/10 04:10:30;;;;;;;53.47;27.58;;;;;;;14.09;88.60;100814.69;5010548;28;20022;-95
2023/05/10 04:12:56;;;;;;;63.58;31.92;;;;;;;14.09;88.45;100825.34;5024518;28;20116;-94
2023/05/10 04:15:22;;;;;;;59.08;27.08;;;;;;;14.02;88.35;100818.63;5029722;28;20026;-94
2023/05/10 04:17:47;;;;;;;61.65;30.52;;;;;;;14.06;88.35;100822.84;5030477;28;20036;-94
2023/05/10 04:20:13;;;;;;;60.42;30.63;;;;;;;14.13;88.56;100831.31;5030398;28;20044;-93
2023/05/10 04:22:38;;;;;;;58.30;30.40;;;;;;;14.11;88.43;100828.75;5018440;28;20380;-94
2023/05/10 04:25:04;;;;;;;58.25;29.02;;;;;;;14.11;87.99;100830.56;5025648;28;20049;-95
2023/05/10 04:27:30;;;;;;;68.65;32.40;;;;;;;14.04;88.14;100820.28;5006316;28;20041;-93
2023/05/10 04:29:56;;;;;;;76.95;35.05;;;;;;;14.01;88.14;100817.78;5015088;28;20029;-94
2023/05/10 04:32:21;;;;;;;74.95;35.45;;;;;;;14.00;88.36;100817.88;5028442;28;20400;-95
2023/05/10 04:34:47;;;;;;;83.68;37.13;;;;;;;13.99;87.68;100822.31;5028418;28;20239;-94
2023/05/10 04:37:12;;;;;;;83.47;36.88;;;;;;;13.99;87.46;100830.31;5012265;28;20480;-94
2023/05/10 04:39:37;;;;;;;78.18;36.42;;;;;;;13.96;87.88;100821.63;5028787;28;20041;-94
2023/05/10 04:42:03;;;;;;;69.78;31.08;;;;;;;13.98;87.36;100841.00;5011117;28;20498;-93
2023/05/10 04:44:29;;;;;;;60.42;30.20;;;;;;;13.90;87.29;100832.59;5008070;28;20033;-94
2023/05/10 04:46:54;;;;;;;57.83;29.92;;;;;;;13.87;87.34;100824.78;5029057;28;20029;-94
2023/05/10 04:49:20;;;;;;;57.33;27.17;;;;;;;13.89;86.37;100838.84;5032496;28;20508;-93
2023/05/10 04:51:45;;;;;;;47.15;24.25;;;;;;;13.84;85.60;100831.09;5026749;28;20034;-93
2023/05/10 04:54:10;;;;;;;49.97;24.95;;;;;;;13.78;85.96;100842.94;5007223;28;20040;-94
2023/05/10 04:56:36;;;;;;;52.50;24.75;;;;;;;13.83;86.36;100849.81;5012025;28;20306;-94
2023/05/10 04:59:01;;;;;;;43.55;22.98;;;;;;;13.79;85.74;100834.00;5026650;28;20032;-94
2023/05/10 05:01:26;;;;;;;38.72;21.52;;;;;;;13.87;84.96;100846.91;5019823;28;20506;-95
2023/05/10 05:03:52;;;;;;;42.78;22.23;;;;;;;13.88;83.87;100839.78;5029190;28;20052;-93
2023/05/10 05:06:18;;;;;;;39.10;21.77;;;;;;;13.88;85.02;100840.63;5010838;28;20018;-93
2023/05/10 05:08:43;;;;;;;42.47;21.38;;;;;;;13.92;84.41;100852.81;5007728;28;20055;-92
2023/05/10 05:11:09;;;;;;;40.40;21.13;;;;;;;13.92;85.01;100847.50;5007079;28;20112;-96
2023/05/10 05:13:34;;;;;;;39.40;20.80;;;;;;;13.98;84.31;100846.31;5024286;28;20037;-91
2023/05/10 05:16:01;;;;;;;36.33;20.98;;;;;;;13.95;84.06;100849.16;5020947;28;20044;-93
2023/05/10 05:18:26;;;;;;;37.60;19.88;;;;;;;13.98;83.58;100843.66;5027288;28;20029;-95
2023/05/10 05:20:51;;;;;;;39.60;20.20;;;;;;;14.00;83.78;100849.75;5013529;28;20033;-94
2023/05/10 05:23:18;;;;;;;36.72;20.73;;;;;;;13.95;83.64;100855.31;5018882;28;20411;-93
2023/05/10 05:25:43;;;;;;;39.50;20.25;;;;;;;13.97;83.78;100855.22;5005688;28;20113;-93
2023/05/10 05:28:08;;;;;;;37.42;21.52;;;;;;;14.07;83.75;100856.44;5014610;28;20099;-96
2023/05/10 05:30:33;;;;;;;37.13;20.38;;;;;;;14.13;83.43;100869.44;5014084;28;20175;-95
2023/05/10 05:32:59;;;;;;;36.38;20.50;;;;;;;14.14;82.76;100862.31;5032320;28;20025;-94
2023/05/10 05:35:24;;;;;;;36.70;20.42;;;;;;;14.20;83.22;100868.13;5012603;28;20021;-94
2023/05/10 05:37:49;;;;;;;37.95;21.10;;;;;;;14.23;83.83;100875.94;5036387;28;20030;-93
2023/05/10 05:40:15;;;;;;;37.17;20.75;;;;;;;14.21;83.08;100869.84;5015198;28;20446;-95
2023/05/10 05:42:40;;;;;;;39.78;21.98;;;;;;;14.15;83.36;100864.88;5028751;28;20029;-93
2023/05/10 05:45:06;;;;;;;38.13;21.25;;;;;;;14.20;82.62;100869.94;5035960;28;20108;-95
2023/05/10 05:47:31;;;;;;;35.50;20.13;;;;;;;14.07;83.11;100864.41;5012506;28;20025;-93
2023/05/10 05:49:57;;;;;;;37.47;20.10;;;;;;;14.09;82.86;100870.53;5017594;28;20052;-93
2023/05/10 05:52:22;;;;;;;35.92;19.73;;;;;;;14.16;83.34;100868.38;5034109;28;20079;-92
2023/05/10 05:54:47;;;;;;;36.28;19.27;;;;;;;14.14;82.83;100867.63;5015880;28;20031;-94
2023/05/10 05:57:12;;;;;;;44.22;21.20;;;;;;;14.17;82.86;100878.91;5010395;28;20040;-91
2023/05/10 05:59:43;;;;;;;37.08;19.88;;;;;;;14.25;83.26;100876.72;5023850;28;20037;-94
2023/05/10 06:02:08;;;;;;;33.67;20.17;;;;;;;14.38;82.79;100879.56;5022608;28;20435;-94
2023/05/10 06:04:33;;;;;;;34.03;20.05;;;;;;;14.35;82.05;100862.91;5030248;28;20029;-92
2023/05/10 06:06:59;;;;;;;36.42;19.48;;;;;;;14.43;82.14;100888.16;5029095;28;20029;-93
2023/05/10 06:09:24;;;;;;;35.05;19.58;;;;;;;14.45;82.41;100877.41;5014510;28;20044;-93
2023/05/10 06:11:49;;;;;;;34.67;20.20;;;;;;;14.47;82.90;100889.69;5010859;28;20084;-92
2023/05/10 06:14:15;;;;;;;34.40;18.77;;;;;;;14.57;81.68;100895.38;5010164;28;20503;-93
2023/05/10 06:16:40;;;;;;;36.40;19.42;;;;;;;14.53;81.56;100901.81;5027343;28;20041;-93
2023/05/10 06:19:05;;;;;;;36.70;20.63;;;;;;;14.50;81.72;100897.56;5023755;28;20036;-93
2023/05/10 06:21:31;;;;;;;39.33;21.20;;;;;;;14.63;81.81;100888.84;5007871;28;20064;-94
2023/05/10 06:23:57;;;;;;;33.92;19.85;;;;;;;14.71;81.43;100898.13;5010494;28;20033;-94
2023/05/10 06:26:22;;;;;;;37.00;20.38;;;;;;;14.78;81.36;100894.19;5010830;28;20105;-93
2023/05/10 06:28:47;;;;;;;33.20;19.67;;;;;;;14.80;81.12;100886.13;5006708;28;20076;-94
2023/05/10 06:31:13;;;;;;;40.00;19.85;;;;;;;14.87;81.36;100898.09;5014060;28;20464;-95
2023/05/10 06:33:38;;;;;;;32.42;19.90;;;;;;;14.84;80.91;100908.94;5016258;28;20041;-94
2023/05/10 06:36:03;;;;;;;34.85;20.80;;;;;;;14.79;81.43;100911.88;5025731;28;20033;-94
2023/05/10 06:38:29;;;;;;;33.50;19.17;;;;;;;14.77;80.77;100910.22;5030035;28;20041;-94
2023/05/10 06:40:54;;;;;;;36.05;20.60;;;;;;;14.76;81.31;100903.19;5016574;28;20033;-92
2023/05/10 06:43:19;;;;;;;36.28;20.08;;;;;;;14.83;80.61;100911.69;5012714;28;20135;-94
2023/05/10 06:45:45;;;;;;;35.72;19.90;;;;;;;14.85;80.13;100915.97;5012261;28;20035;-94
2023/05/10 06:48:10;;;;;;;37.53;21.30;;;;;;;14.75;81.07;100928.97;5028704;28;20037;-94
2023/05/10 06:50:36;;;;;;;39.42;20.63;;;;;;;14.76;80.08;100900.53;5036804;28;20044;-95
2023/05/10 06:53:01;;;;;;;42.22;23.33;;;;;;;14.83;80.81;100909.91;5004883;28;20049;-93
2023/05/10 06:55:28;;;;;;;39.55;19.77;;;;;;;14.78;81.03;100899.53;5015538;28;20277;-94
2023/05/10 06:57:53;;;;;;;37.58;21.45;;;;;;;14.74;81.79;100919.25;5023471;28;20072;-94
2023/05/10 07:00:20;;;;;;;40.67;21.92;;;;;;;14.67;80.98;100890.41;5021002;28;20030;-93
2023/05/10 07:02:45;;;;;;;37.83;20.92;;;;;;;14.69;81.30;100892.06;5024523;28;20029;-93
2023/05/10 07:05:12;;;;;;;37.60;21.55;;;;;;;14.93;80.64;100928.88;5037205;28;20025;-94
2023/05/10 07:07:37;;;;;;;38.55;21.42;;;;;;;14.75;81.00;100891.69;5021820;28;20412;-94
2023/05/10 07:10:03;;;;;;;41.10;22.15;;;;;;;14.99;80.32;100917.88;5018446;28;20029;-93
2023/05/10 07:12:28;;;;;;;39.90;22.17;;;;;;;14.73;80.07;100917.53;5014658;28;20064;-91
2023/05/10 07:14:54;;;;;;;38.47;21.70;;;;;;;14.98;81.54;100948.09;5012527;28;20481;-94
2023/05/10 07:17:19;;;;;;;37.00;22.92;;;;;;;14.96;80.76;100931.34;5024220;28;20018;-95
2023/05/10 07:19:45;;;;;;;37.67;22.92;;;;;;;14.96;80.03;100934.84;5011322;28;20040;-93
2023/05/10 07:22:10;;;;;;;36.40;21.55;;;;;;;14.96;80.34;100942.84;5011406;28;20396;-94
2023/05/10 07:24:36;;;;;;;38.42;21.50;;;;;;;14.97;80.28;100957.91;5009933;28;20029;-95
2023/05/10 07:27:01;;;;;;;38.10;22.65;;;;;;;14.89;80.42;100945.97;5011505;28;20470;-95
2023/05/10 07:29:27;;;;;;;42.38;22.58;;;;;;;14.95;81.39;100962.44;5009679;28;20041;-95
2023/05/10 07:31:52;;;;;;;37.92;22.55;;;;;;;14.93;80.97;100966.13;5014440;28;20025;-95
2023/05/10 07:34:18;;;;;;;42.08;22.17;;;;;;;14.85;80.93;100952.41;5014035;28;20025;-95
2023/05/10 07:36:43;;;;;;;41.70;23.38;;;;;;;14.85;81.21;100958.56;5033926;28;20025;-94
2023/05/10 07:39:08;;;;;;;44.53;24.05;;;;;;;14.82;80.77;100956.06;5014370;28;20025;-94
2023/05/10 07:41:34;;;;;;;36.83;21.67;;;;;;;14.77;80.82;100955.47;5028969;28;20021;-95
2023/05/10 07:43:59;;;;;;;40.85;22.42;;;;;;;14.80;80.89;100947.34;5017522;28;20029;-95
2023/05/10 07:46:25;;;;;;;38.60;21.35;;;;;;;14.87;81.00;100966.47;5018455;28;20029;-95
2023/05/10 07:48:50;;;;;;;34.95;20.42;;;;;;;14.83;81.07;100951.59;5014748;28;20046;-95
2023/05/10 07:51:15;;;;;;;31.88;19.50;;;;;;;14.87;80.74;100967.31;5007288;28;20113;-95
2023/05/10 07:53:40;;;;;;;33.05;19.77;;;;;;;14.94;80.74;100975.84;5015115;28;20030;-95
2023/05/10 07:56:29;;;;;;;33.88;21.00;;;;;;;14.92;80.58;100975.03;5001820;28;20037;-94
2023/05/10 07:59:01;;;;;;;32.58;18.40;;;;;;;14.85;80.36;100968.38;4993519;28;20076;-96
2023/05/10 08:01:29;;;;;;;34.08;18.73;;;;;;;14.94;79.78;100983.81;4987365;28;20030;-94
2023/05/10 08:03:54;;;;;;;31.50;18.52;;;;;;;14.90;80.42;100988.47;5003642;28;20032;-94
2023/05/10 08:06:20;;;;;;;28.48;17.83;;;;;;;15.02;80.23;100992.25;4990479;28;20029;-94
2023/05/10 08:08:49;;;;;;;28.25;17.65;;;;;;;14.96;80.92;100992.56;4998925;28;20061;-94
2023/05/10 08:11:16;;;;;;;28.90;17.58;;;;;;;15.16;80.58;100999.47;5013274;28;20034;-95
2023/05/10 08:13:41;;;;;;;29.58;18.33;;;;;;;15.18;81.13;101000.22;5026051;28;20100;-94
2023/05/10 08:16:07;;;;;;;29.08;17.15;;;;;;;15.15;80.13;100995.91;4991438;28;20049;-94
2023/05/10 08:18:32;;;;;;;27.55;16.42;;;;;;;15.18;79.79;100993.09;4996850;28;20030;-95
2023/05/10 08:20:57;;;;;;;30.30;17.75;;;;;;;15.24;80.45;101002.53;4993419;28;20018;-96
2023/05/10 08:23:23;;;;;;;26.70;16.77;;;;;;;15.23;77.81;101001.66;5006450;28;20436;-95
2023/05/10 08:25:48;;;;;;;20.67;15.27;;;;;;;15.20;77.77;100998.31;5012564;28;20478;-95
2023/05/10 08:28:13;;;;;;;24.90;15.77;;;;;;;15.22;77.61;100999.09;4991414;28;20022;-93
2023/05/10 08:30:38;;;;;;;21.05;15.40;;;;;;;15.36;78.06;101012.50;4991389;28;20067;-95
2023/05/10 08:33:04;;;;;;;22.88;16.05;;;;;;;15.44;77.69;101014.72;5000797;28;20042;-94
2023/05/10 08:35:29;;;;;;;26.50;16.15;;;;;;;15.61;78.27;101011.06;4994055;28;20037;-93
2023/05/10 08:37:54;;;;;;;20.48;14.55;;;;;;;15.57;76.46;101013.94;5011111;28;20021;-95
2023/05/10 08:40:20;;;;;;;24.42;14.95;;;;;;;15.59;77.39;101012.97;4994598;28;20025;-95
2023/05/10 08:42:58;;;;;;;15.80;12.23;;;;;;;15.55;75.89;101017.63;4998378;28;20048;-94
2023/05/10 08:45:24;;;;;;;21.95;13.60;;;;;;;15.63;75.36;101025.19;5004706;28;20034;-96
2023/05/10 08:47:51;;;;;;;26.63;15.18;;;;;;;15.71;76.28;101015.78;5015877;28;20029;-95
2023/05/10 08:50:20;;;;;;;17.45;12.15;;;;;;;15.74;75.91;101022.75;5040001;28;20053;-95
2023/05/10 08:52:48;;;;;;;17.95;11.63;;;;;;;15.69;74.54;101019.50;5023661;28;20625;-94
2023/05/10 08:55:13;;;;;;;21.88;12.27;;;;;;;15.66;74.68;101020.53;5036381;28;20361;-94
2023/05/10 08:57:39;;;;;;;18.52;12.10;;;;;;;15.67;75.51;101024.94;5017231;28;20070;-94
2023/05/10 09:00:05;;;;;;;19.85;12.05;;;;;;;15.68;75.01;101029.31;5018849;28;20025;-93
2023/05/10 09:02:31;;;;;;;13.90;10.57;;;;;;;15.67;74.67;101029.41;5020087;28;20040;-94
2023/05/10 09:04:56;;;;;;;17.20;10.43;;;;;;;15.73;74.31;101031.72;5014274;28;20026;-95
2023/05/10 09:07:22;;;;;;;13.95;10.30;;;;;;;15.91;74.74;101019.97;5019493;28;20555;-95
2023/05/10 09:09:48;;;;;;;14.38;10.10;;;;;;;16.05;73.67;101024.47;5020150;28;20033;-95
2023/05/10 09:12:15;;;;;;;11.73;8.82;;;;;;;16.22;73.62;101028.78;5014586;28;20040;-93
2023/05/10 09:14:41;;;;;;;12.27;9.63;;;;;;;16.39;72.75;101031.28;5020676;28;20055;-94
2023/05/10 09:17:07;;;;;;;11.27;9.20;;;;;;;16.48;72.75;101043.19;5030650;28;20029;-94
2023/05/10 09:19:32;;;;;;;13.45;8.43;;;;;;;16.51;71.20;101043.88;5036069;28;20030;-94
2023/05/10 09:22:00;;;;;;;11.35;8.25;;;;;;;16.47;71.87;101044.16;5018598;28;20044;-94
2023/05/10 09:24:26;;;;;;;12.63;9.00;;;;;;;16.46;71.59;101042.41;5037822;28;20029;-95
2023/05/10 09:26:51;;;;;;;14.65;8.57;;;;;;;16.56;72.55;101038.25;5015211;28;20021;-93
2023/05/10 09:29:17;;;;;;;11.73;8.57;;;;;;;16.61;72.60;101043.31;5028041;28;20051;-95
2023/05/10 09:31:50;;;;;;;11.57;7.47;;;;;;;16.62;71.13;101051.22;5011723;28;20078;-93
2023/05/10 09:34:18;;;;;;;13.70;7.80;;;;;;;16.59;71.81;101046.91;5034296;28;20063;-96
2023/05/10 09:36:54;;;;;;;13.02;7.88;;;;;;;16.61;71.91;101051.31;5034061;28;20090;-94
2023/05/10 09:39:20;;;;;;;11.13;7.93;;;;;;;16.58;71.34;101053.22;5031183;28;20503;-93
2023/05/10 09:41:45;;;;;;;10.48;8.25;;;;;;;16.55;72.34;101047.19;5023360;28;20028;-93
2023/05/10 09:44:11;;;;;;;13.13;8.90;;;;;;;16.71;71.01;101053.31;5039510;28;20068;-94
2023/05/10 09:46:36;;;;;;;8.27;7.47;;;;;;;16.82;72.06;101058.84;5031097;28;20033;-93
2023/05/10 09:49:02;;;;;;;10.50;7.60;;;;;;;17.00;69.87;101064.84;5029198;28;20034;-93
2023/05/10 09:51:27;;;;;;;11.32;7.45;;;;;;;16.94;67.97;101051.91;5011774;28;20404;-96
2023/05/10 09:54:12;;;;;;;8.63;7.28;;;;;;;17.04;70.14;101054.84;5025083;28;20104;-94
2023/05/10 09:56:40;;;;;;;9.65;7.15;;;;;;;17.13;70.06;101062.28;5017747;28;20081;-94
2023/05/10 09:59:07;;;;;;;10.13;8.32;;;;;;;17.03;68.06;101048.66;5012071;28;20052;-94
2023/05/10 10:01:33;;;;;;;8.65;7.65;;;;;;;17.03;69.60;101056.66;5008782;28;20466;-95
2023/05/10 10:03:58;;;;;;;10.80;8.90;;;;;;;17.04;72.67;101057.50;5018769;28;20029;-94
2023/05/10 10:06:24;;;;;;;9.10;7.50;;;;;;;17.00;70.34;101062.19;5031715;28;20025;-93
2023/05/10 10:08:51;;;;;;;12.30;7.50;;;;;;;16.76;71.55;101059.25;5030334;28;20025;-92
2023/05/10 10:11:16;;;;;;;10.00;7.63;;;;;;;16.72;74.11;101068.41;5027840;28;20339;-93
2023/05/10 10:13:42;;;;;;;13.52;8.43;;;;;;;16.64;74.81;101061.78;5026712;28;20028;-91
2023/05/10 10:16:08;;;;;;;13.50;8.30;;;;;;;16.43;74.78;101063.97;5006884;28;20049;-92
2023/05/10 10:18:38;;;;;;;10.65;8.68;;;;;;;16.32;76.76;101057.50;5011765;28;20053;-92
2023/05/10 10:21:08;;;;;;;12.18;8.63;;;;;;;16.29;76.22;101059.47;5027881;28;20353;-93
2023/05/10 10:23:34;;;;;;;13.50;8.90;;;;;;;16.35;78.22;101067.09;5026813;28;20116;-91
2023/05/10 10:26:00;;;;;;;13.20;9.35;;;;;;;16.39;76.36;101067.78;5010600;28;20619;-91
2023/05/10 10:29:05;;;;;;;12.60;9.98;;;;;;;16.79;78.20;101074.25;5026653;28;20117;-93
2023/05/10 10:31:44;;;;;;;12.82;10.10;;;;;;;17.39;78.17;101075.75;5007876;28;20480;-92
2023/05/10 10:34:12;;;;;;;10.65;9.40;;;;;;;17.55;71.59;101068.47;5028137;28;20053;-93
2023/05/10 10:36:47;;;;;;;13.45;8.50;;;;;;;17.81;71.47;101066.75;5010561;28;20108;-93
2023/05/10 10:39:14;;;;;;;10.80;8.30;;;;;;;17.63;68.60;101063.47;5036307;28;20544;-92
2023/05/10 10:41:48;;;;;;;11.05;8.43;;;;;;;17.76;68.53;101060.84;5028338;28;20048;-91
2023/05/10 10:44:26;;;;;;;10.30;7.80;;;;;;;17.88;68.66;101065.41;5025980;28;20127;-93
2023/05/10 10:47:22;;;;;;;8.85;7.60;;;;;;;17.89;70.49;101067.09;5029623;28;20029;-93
2023/05/10 10:50:02;;;;;;;9.05;7.10;;;;;;;17.85;68.77;101058.41;5031786;28;20045;-92
2023/05/10 10:52:34;;;;;;;7.20;6.50;;;;;;;17.72;68.57;101067.31;5033814;28;20073;-92
2023/05/10 10:55:04;;;;;;;12.35;7.35;;;;;;;17.60;72.87;101069.88;5034310;28;20029;-92
2023/05/10 10:57:51;;;;;;;7.32;5.53;;;;;;;17.45;71.27;101065.53;5011271;28;20082;-90
2023/05/10 11:00:26;;;;;;;8.32;6.03;;;;;;;17.42;72.83;101075.56;5024615;28;20022;-92
2023/05/10 11:03:14;;;;;;;9.40;6.20;;;;;;;17.49;71.01;101071.53;5007494;28;20044;-91
2023/05/10 11:05:40;;;;;;;9.20;6.22;;;;;;;17.53;72.03;101071.25;5025110;28;20030;-92
2023/05/10 11:08:15;;;;;;;10.10;6.53;;;;;;;17.63;70.33;101060.81;5027523;28;20096;-93
2023/05/10 11:10:53;;;;;;;8.98;6.07;;;;;;;17.92;71.91;101066.06;5022061;28;20313;-91
2023/05/10 11:13:31;;;;;;;9.57;7.05;;;;;;;18.20;71.69;101046.31;5027530;28;20045;-92
2023/05/10 11:15:57;;;;;;;8.55;6.30;;;;;;;18.57;68.32;101066.88;5010720;28;20357;-92